sensor_id;sensor_type;location;lat;lon;timestamp;P1;durP1;ratioP1;P2;durP2;ratioP2
30707;SDS011;17458;48.958;8.284;2023-07-28T00:00:35;3.20;;;2.13;;
30707;SDS011;17458;48.958;8.284;2023-07-28T00:03:19;3.75;;;2.15;;
30707;SDS011;17458;48.958;8.284;2023-07-28T00:06:03;4.03;;;2.28;;
30707;SDS011;17458;48.958;8.284;2023-07-28T00:08:47;6.18;;;2.67;;
30707;SDS011;17458;48.958;8.284;2023-07-28T00:11:31;5.18;;;2.50;;
30707;SDS011;17458;48.958;8.284;2023-07-28T00:14:18;3.95;;;2.47;;
30707;SDS011;17458;48.958;8.284;2023-07-28T00:17:02;4.47;;;2.47;;
30707;SDS011;17458;48.958;8.284;2023-07-28T00:19:47;4.60;;;2.35;;
30707;SDS011;17458;48.958;8.284;2023-07-28T00:22:31;5.03;;;2.55;;
30707;SDS011;17458;48.958;8.284;2023-07-28T00:25:15;4.25;;;2.90;;
30707;SDS011;17458;48.958;8.284;2023-07-28T00:27:58;5.65;;;2.25;;
30707;SDS011;17458;48.958;8.284;2023-07-28T00:30:43;4.45;;;2.25;;
30707;SDS011;17458;48.958;8.284;2023-07-28T00:33:27;7.93;;;2.55;;
30707;SDS011;17458;48.958;8.284;2023-07-28T00:36:11;3.00;;;2.15;;
30707;SDS011;17458;48.958;8.284;2023-07-28T00:38:55;2.55;;;2.25;;
30707;SDS011;17458;48.958;8.284;2023-07-28T00:41:40;3.63;;;2.30;;
30707;SDS011;17458;48.958;8.284;2023-07-28T00:44:24;3.25;;;2.17;;
30707;SDS011;17458;48.958;8.284;2023-07-28T00:47:08;7.13;;;2.55;;
30707;SDS011;17458;48.958;8.284;2023-07-28T00:49:52;5.45;;;3.45;;
30707;SDS011;17458;48.958;8.284;2023-07-28T00:52:37;4.05;;;2.55;;
30707;SDS011;17458;48.958;8.284;2023-07-28T00:55:22;4.32;;;2.20;;
30707;SDS011;17458;48.958;8.284;2023-07-28T00:58:06;4.32;;;3.38;;
30707;SDS011;17458;48.958;8.284;2023-07-28T01:00:53;2.97;;;2.42;;
30707;SDS011;17458;48.958;8.284;2023-07-28T01:03:37;3.95;;;2.63;;
30707;SDS011;17458;48.958;8.284;2023-07-28T01:09:42;2.45;;;1.98;;
30707;SDS011;17458;48.958;8.284;2023-07-28T01:12:30;6.00;;;2.75;;
30707;SDS011;17458;48.958;8.284;2023-07-28T01:15:14;5.13;;;2.50;;
30707;SDS011;17458;48.958;8.284;2023-07-28T01:17:59;12.38;;;2.80;;
30707;SDS011;17458;48.958;8.284;2023-07-28T01:20:43;6.65;;;2.50;;
30707;SDS011;17458;48.958;8.284;2023-07-28T01:23:41;9.88;;;2.38;;
30707;SDS011;17458;48.958;8.284;2023-07-28T01:26:32;4.10;;;2.55;;
30707;SDS011;17458;48.958;8.284;2023-07-28T01:29:19;3.67;;;2.65;;
30707;SDS011;17458;48.958;8.284;2023-07-28T01:32:04;2.83;;;2.03;;
30707;SDS011;17458;48.958;8.284;2023-07-28T01:34:49;5.50;;;2.38;;
30707;SDS011;17458;48.958;8.284;2023-07-28T01:37:33;3.15;;;2.17;;
30707;SDS011;17458;48.958;8.284;2023-07-28T01:40:17;2.95;;;2.45;;
30707;SDS011;17458;48.958;8.284;2023-07-28T01:43:02;4.22;;;3.15;;
30707;SDS011;17458;48.958;8.284;2023-07-28T01:45:46;4.93;;;2.63;;
30707;SDS011;17458;48.958;8.284;2023-07-28T01:48:30;3.05;;;2.60;;
30707;SDS011;17458;48.958;8.284;2023-07-28T01:51:14;2.47;;;2.28;;
30707;SDS011;17458;48.958;8.284;2023-07-28T01:53:58;5.70;;;2.70;;
30707;SDS011;17458;48.958;8.284;2023-07-28T01:56:42;9.18;;;2.50;;
30707;SDS011;17458;48.958;8.284;2023-07-28T01:59:26;2.90;;;1.92;;
30707;SDS011;17458;48.958;8.284;2023-07-28T02:02:10;2.80;;;2.40;;
30707;SDS011;17458;48.958;8.284;2023-07-28T02:04:54;3.30;;;2.55;;
30707;SDS011;17458;48.958;8.284;2023-07-28T02:07:38;3.58;;;2.92;;
30707;SDS011;17458;48.958;8.284;2023-07-28T02:10:22;2.97;;;2.13;;
30707;SDS011;17458;48.958;8.284;2023-07-28T02:13:07;3.50;;;2.78;;
30707;SDS011;17458;48.958;8.284;2023-07-28T02:15:51;4.43;;;2.50;;
30707;SDS011;17458;48.958;8.284;2023-07-28T02:18:35;5.50;;;2.22;;
30707;SDS011;17458;48.958;8.284;2023-07-28T02:21:19;3.22;;;2.00;;
30707;SDS011;17458;48.958;8.284;2023-07-28T02:24:03;3.63;;;1.98;;
30707;SDS011;17458;48.958;8.284;2023-07-28T02:26:48;3.65;;;2.42;;
30707;SDS011;17458;48.958;8.284;2023-07-28T02:29:31;3.78;;;2.20;;
30707;SDS011;17458;48.958;8.284;2023-07-28T02:32:15;5.82;;;2.17;;
30707;SDS011;17458;48.958;8.284;2023-07-28T02:34:59;5.00;;;2.15;;
30707;SDS011;17458;48.958;8.284;2023-07-28T02:37:43;5.47;;;2.90;;
30707;SDS011;17458;48.958;8.284;2023-07-28T02:40:27;10.00;;;2.88;;
30707;SDS011;17458;48.958;8.284;2023-07-28T02:43:11;2.72;;;2.40;;
30707;SDS011;17458;48.958;8.284;2023-07-28T02:45:56;5.80;;;2.72;;
30707;SDS011;17458;48.958;8.284;2023-07-28T02:48:41;4.57;;;3.00;;
30707;SDS011;17458;48.958;8.284;2023-07-28T02:51:25;6.82;;;2.65;;
30707;SDS011;17458;48.958;8.284;2023-07-28T02:54:09;7.45;;;2.83;;
30707;SDS011;17458;48.958;8.284;2023-07-28T02:56:53;7.82;;;3.30;;
30707;SDS011;17458;48.958;8.284;2023-07-28T02:59:37;3.65;;;2.35;;
30707;SDS011;17458;48.958;8.284;2023-07-28T03:02:21;7.88;;;3.42;;
30707;SDS011;17458;48.958;8.284;2023-07-28T03:05:06;3.95;;;2.80;;
30707;SDS011;17458;48.958;8.284;2023-07-28T03:07:56;5.18;;;2.25;;
30707;SDS011;17458;48.958;8.284;2023-07-28T03:10:40;8.30;;;2.28;;
30707;SDS011;17458;48.958;8.284;2023-07-28T03:13:24;2.92;;;1.77;;
30707;SDS011;17458;48.958;8.284;2023-07-28T03:16:08;5.50;;;2.20;;
30707;SDS011;17458;48.958;8.284;2023-07-28T03:18:53;2.85;;;2.22;;
30707;SDS011;17458;48.958;8.284;2023-07-28T03:24:22;2.75;;;2.08;;
30707;SDS011;17458;48.958;8.284;2023-07-28T03:27:06;1.98;;;1.75;;
30707;SDS011;17458;48.958;8.284;2023-07-28T03:29:50;3.25;;;2.33;;
30707;SDS011;17458;48.958;8.284;2023-07-28T03:32:37;3.15;;;2.20;;
30707;SDS011;17458;48.958;8.284;2023-07-28T03:35:21;4.18;;;2.17;;
30707;SDS011;17458;48.958;8.284;2023-07-28T03:38:15;3.08;;;2.25;;
30707;SDS011;17458;48.958;8.284;2023-07-28T03:40:59;3.38;;;2.30;;
30707;SDS011;17458;48.958;8.284;2023-07-28T03:43:43;4.72;;;2.13;;
30707;SDS011;17458;48.958;8.284;2023-07-28T03:46:27;2.95;;;2.38;;
30707;SDS011;17458;48.958;8.284;2023-07-28T03:49:11;8.07;;;2.58;;
30707;SDS011;17458;48.958;8.284;2023-07-28T03:51:55;3.13;;;2.42;;
30707;SDS011;17458;48.958;8.284;2023-07-28T03:54:39;3.03;;;2.10;;
30707;SDS011;17458;48.958;8.284;2023-07-28T03:57:23;2.55;;;1.90;;
30707;SDS011;17458;48.958;8.284;2023-07-28T04:00:07;3.65;;;2.25;;
30707;SDS011;17458;48.958;8.284;2023-07-28T04:02:58;4.40;;;2.50;;
30707;SDS011;17458;48.958;8.284;2023-07-28T04:05:42;2.55;;;2.28;;
30707;SDS011;17458;48.958;8.284;2023-07-28T04:08:26;2.78;;;1.80;;
30707;SDS011;17458;48.958;8.284;2023-07-28T04:11:10;3.05;;;2.20;;
30707;SDS011;17458;48.958;8.284;2023-07-28T04:13:54;5.57;;;2.50;;
30707;SDS011;17458;48.958;8.284;2023-07-28T04:16:38;3.67;;;2.60;;
30707;SDS011;17458;48.958;8.284;2023-07-28T04:19:22;1.92;;;1.63;;
30707;SDS011;17458;48.958;8.284;2023-07-28T04:22:06;2.67;;;1.73;;
30707;SDS011;17458;48.958;8.284;2023-07-28T04:24:52;3.33;;;1.75;;
30707;SDS011;17458;48.958;8.284;2023-07-28T04:27:37;5.13;;;2.42;;
30707;SDS011;17458;48.958;8.284;2023-07-28T04:30:22;2.85;;;2.00;;
30707;SDS011;17458;48.958;8.284;2023-07-28T04:33:07;6.35;;;2.33;;
30707;SDS011;17458;48.958;8.284;2023-07-28T04:35:56;5.22;;;2.47;;
30707;SDS011;17458;48.958;8.284;2023-07-28T04:38:49;3.47;;;2.10;;
30707;SDS011;17458;48.958;8.284;2023-07-28T04:41:33;2.85;;;2.20;;
30707;SDS011;17458;48.958;8.284;2023-07-28T04:44:18;3.33;;;2.25;;
30707;SDS011;17458;48.958;8.284;2023-07-28T04:47:04;3.88;;;2.13;;
30707;SDS011;17458;48.958;8.284;2023-07-28T04:49:48;5.88;;;2.25;;
30707;SDS011;17458;48.958;8.284;2023-07-28T04:53:10;3.85;;;2.63;;
30707;SDS011;17458;48.958;8.284;2023-07-28T04:56:13;3.03;;;2.47;;
30707;SDS011;17458;48.958;8.284;2023-07-28T04:58:57;4.47;;;2.20;;
30707;SDS011;17458;48.958;8.284;2023-07-28T05:01:42;7.63;;;2.58;;
30707;SDS011;17458;48.958;8.284;2023-07-28T05:04:26;3.80;;;2.33;;
30707;SDS011;17458;48.958;8.284;2023-07-28T05:07:10;2.78;;;1.92;;
30707;SDS011;17458;48.958;8.284;2023-07-28T05:09:54;5.72;;;2.83;;
30707;SDS011;17458;48.958;8.284;2023-07-28T05:12:41;4.35;;;1.80;;
30707;SDS011;17458;48.958;8.284;2023-07-28T05:15:25;2.53;;;1.90;;
30707;SDS011;17458;48.958;8.284;2023-07-28T05:18:09;2.88;;;2.25;;
30707;SDS011;17458;48.958;8.284;2023-07-28T05:20:58;3.50;;;2.28;;
30707;SDS011;17458;48.958;8.284;2023-07-28T05:23:42;3.22;;;2.10;;
30707;SDS011;17458;48.958;8.284;2023-07-28T05:26:26;4.40;;;2.60;;
30707;SDS011;17458;48.958;8.284;2023-07-28T05:29:10;3.25;;;2.22;;
30707;SDS011;17458;48.958;8.284;2023-07-28T05:31:55;4.47;;;2.35;;
30707;SDS011;17458;48.958;8.284;2023-07-28T05:34:52;2.25;;;1.85;;
30707;SDS011;17458;48.958;8.284;2023-07-28T05:37:36;2.42;;;2.22;;
30707;SDS011;17458;48.958;8.284;2023-07-28T05:40:20;3.53;;;2.50;;
30707;SDS011;17458;48.958;8.284;2023-07-28T05:43:04;2.53;;;2.33;;
30707;SDS011;17458;48.958;8.284;2023-07-28T05:45:48;3.53;;;2.58;;
30707;SDS011;17458;48.958;8.284;2023-07-28T05:48:34;3.08;;;2.30;;
30707;SDS011;17458;48.958;8.284;2023-07-28T05:51:18;3.97;;;2.53;;
30707;SDS011;17458;48.958;8.284;2023-07-28T05:54:02;5.55;;;1.85;;
30707;SDS011;17458;48.958;8.284;2023-07-28T05:56:46;2.95;;;2.08;;
30707;SDS011;17458;48.958;8.284;2023-07-28T05:59:30;2.75;;;1.95;;
30707;SDS011;17458;48.958;8.284;2023-07-28T06:02:14;4.03;;;2.00;;
30707;SDS011;17458;48.958;8.284;2023-07-28T06:05:06;9.15;;;2.17;;
30707;SDS011;17458;48.958;8.284;2023-07-28T06:07:50;12.55;;;2.30;;
30707;SDS011;17458;48.958;8.284;2023-07-28T06:10:34;2.65;;;1.52;;
30707;SDS011;17458;48.958;8.284;2023-07-28T06:13:19;4.32;;;1.65;;
30707;SDS011;17458;48.958;8.284;2023-07-28T06:16:03;3.42;;;1.80;;
30707;SDS011;17458;48.958;8.284;2023-07-28T06:18:48;5.85;;;1.98;;
30707;SDS011;17458;48.958;8.284;2023-07-28T06:21:35;1.92;;;1.45;;
30707;SDS011;17458;48.958;8.284;2023-07-28T06:24:19;2.17;;;1.98;;
30707;SDS011;17458;48.958;8.284;2023-07-28T06:27:04;2.60;;;1.42;;
30707;SDS011;17458;48.958;8.284;2023-07-28T06:29:53;19.38;;;1.85;;
30707;SDS011;17458;48.958;8.284;2023-07-28T06:32:37;15.25;;;2.20;;
30707;SDS011;17458;48.958;8.284;2023-07-28T06:35:21;10.63;;;1.65;;
30707;SDS011;17458;48.958;8.284;2023-07-28T06:38:06;4.85;;;1.75;;
30707;SDS011;17458;48.958;8.284;2023-07-28T06:40:50;8.05;;;1.48;;
30707;SDS011;17458;48.958;8.284;2023-07-28T06:43:35;6.15;;;1.05;;
30707;SDS011;17458;48.958;8.284;2023-07-28T06:46:19;6.22;;;1.48;;
30707;SDS011;17458;48.958;8.284;2023-07-28T06:49:04;6.20;;;1.40;;
30707;SDS011;17458;48.958;8.284;2023-07-28T06:51:48;6.32;;;1.20;;
30707;SDS011;17458;48.958;8.284;2023-07-28T06:54:32;2.70;;;1.70;;
30707;SDS011;17458;48.958;8.284;2023-07-28T06:57:17;2.05;;;1.30;;
30707;SDS011;17458;48.958;8.284;2023-07-28T07:00:04;1.75;;;1.30;;
30707;SDS011;17458;48.958;8.284;2023-07-28T07:02:49;6.38;;;1.15;;
30707;SDS011;17458;48.958;8.284;2023-07-28T07:05:33;2.78;;;1.05;;
30707;SDS011;17458;48.958;8.284;2023-07-28T07:08:17;2.50;;;1.58;;
30707;SDS011;17458;48.958;8.284;2023-07-28T07:11:02;3.83;;;1.33;;
30707;SDS011;17458;48.958;8.284;2023-07-28T07:13:46;2.80;;;1.52;;
30707;SDS011;17458;48.958;8.284;2023-07-28T07:16:30;1.48;;;1.35;;
30707;SDS011;17458;48.958;8.284;2023-07-28T07:19:14;10.63;;;1.10;;
30707;SDS011;17458;48.958;8.284;2023-07-28T07:21:59;1.13;;;1.00;;
30707;SDS011;17458;48.958;8.284;2023-07-28T07:24:44;1.00;;;0.80;;
30707;SDS011;17458;48.958;8.284;2023-07-28T07:27:28;2.80;;;1.08;;
30707;SDS011;17458;48.958;8.284;2023-07-28T07:30:12;1.40;;;1.20;;
30707;SDS011;17458;48.958;8.284;2023-07-28T07:32:56;1.33;;;1.10;;
30707;SDS011;17458;48.958;8.284;2023-07-28T07:35:40;7.55;;;1.02;;
30707;SDS011;17458;48.958;8.284;2023-07-28T07:38:23;1.48;;;1.23;;
30707;SDS011;17458;48.958;8.284;2023-07-28T07:41:08;1.45;;;1.35;;
30707;SDS011;17458;48.958;8.284;2023-07-28T07:43:54;1.63;;;1.20;;
30707;SDS011;17458;48.958;8.284;2023-07-28T07:46:39;1.77;;;1.38;;
30707;SDS011;17458;48.958;8.284;2023-07-28T07:49:23;2.60;;;1.73;;
30707;SDS011;17458;48.958;8.284;2023-07-28T07:52:07;1.77;;;1.52;;
30707;SDS011;17458;48.958;8.284;2023-07-28T07:54:52;6.25;;;1.42;;
30707;SDS011;17458;48.958;8.284;2023-07-28T07:57:36;2.45;;;1.50;;
30707;SDS011;17458;48.958;8.284;2023-07-28T08:00:21;2.40;;;1.60;;
30707;SDS011;17458;48.958;8.284;2023-07-28T08:03:05;2.75;;;1.42;;
30707;SDS011;17458;48.958;8.284;2023-07-28T08:05:49;4.45;;;1.83;;
30707;SDS011;17458;48.958;8.284;2023-07-28T08:08:33;1.48;;;1.30;;
30707;SDS011;17458;48.958;8.284;2023-07-28T08:11:18;4.18;;;1.58;;
30707;SDS011;17458;48.958;8.284;2023-07-28T08:14:02;5.93;;;1.90;;
30707;SDS011;17458;48.958;8.284;2023-07-28T08:16:46;10.82;;;4.55;;
30707;SDS011;17458;48.958;8.284;2023-07-28T08:19:30;3.83;;;1.50;;
30707;SDS011;17458;48.958;8.284;2023-07-28T08:22:14;4.88;;;1.55;;
30707;SDS011;17458;48.958;8.284;2023-07-28T08:24:58;5.03;;;1.67;;
30707;SDS011;17458;48.958;8.284;2023-07-28T08:27:42;3.60;;;1.58;;
30707;SDS011;17458;48.958;8.284;2023-07-28T08:30:26;1.88;;;1.60;;
30707;SDS011;17458;48.958;8.284;2023-07-28T08:33:12;3.17;;;1.83;;
30707;SDS011;17458;48.958;8.284;2023-07-28T08:35:59;1.60;;;1.40;;
30707;SDS011;17458;48.958;8.284;2023-07-28T08:38:43;3.67;;;1.88;;
30707;SDS011;17458;48.958;8.284;2023-07-28T08:41:28;4.88;;;1.63;;
30707;SDS011;17458;48.958;8.284;2023-07-28T08:44:12;1.88;;;1.67;;
30707;SDS011;17458;48.958;8.284;2023-07-28T08:46:57;3.63;;;1.98;;
30707;SDS011;17458;48.958;8.284;2023-07-28T08:49:42;1.90;;;1.38;;
30707;SDS011;17458;48.958;8.284;2023-07-28T08:52:26;2.75;;;1.58;;
30707;SDS011;17458;48.958;8.284;2023-07-28T08:55:10;8.70;;;3.95;;
30707;SDS011;17458;48.958;8.284;2023-07-28T08:57:55;1.92;;;1.42;;
30707;SDS011;17458;48.958;8.284;2023-07-28T09:00:38;2.90;;;1.52;;
30707;SDS011;17458;48.958;8.284;2023-07-28T09:03:24;4.55;;;1.48;;
30707;SDS011;17458;48.958;8.284;2023-07-28T09:06:10;2.08;;;1.63;;
30707;SDS011;17458;48.958;8.284;2023-07-28T09:09:06;2.75;;;1.58;;
30707;SDS011;17458;48.958;8.284;2023-07-28T09:12:04;4.65;;;1.52;;
30707;SDS011;17458;48.958;8.284;2023-07-28T09:15:08;2.65;;;1.80;;
30707;SDS011;17458;48.958;8.284;2023-07-28T09:18:22;3.95;;;2.15;;
30707;SDS011;17458;48.958;8.284;2023-07-28T09:21:20;2.65;;;1.60;;
30707;SDS011;17458;48.958;8.284;2023-07-28T09:24:10;5.82;;;1.58;;
30707;SDS011;17458;48.958;8.284;2023-07-28T09:26:56;1.90;;;1.50;;
30707;SDS011;17458;48.958;8.284;2023-07-28T09:29:40;3.70;;;1.63;;
30707;SDS011;17458;48.958;8.284;2023-07-28T09:32:29;5.53;;;1.98;;
30707;SDS011;17458;48.958;8.284;2023-07-28T09:35:16;2.65;;;1.90;;
30707;SDS011;17458;48.958;8.284;2023-07-28T09:38:02;3.40;;;1.92;;
30707;SDS011;17458;48.958;8.284;2023-07-28T09:40:46;2.25;;;1.50;;
30707;SDS011;17458;48.958;8.284;2023-07-28T09:43:32;9.32;;;1.95;;
30707;SDS011;17458;48.958;8.284;2023-07-28T09:46:17;2.42;;;1.77;;
30707;SDS011;17458;48.958;8.284;2023-07-28T09:49:04;4.43;;;1.73;;
30707;SDS011;17458;48.958;8.284;2023-07-28T09:51:54;2.05;;;1.52;;
30707;SDS011;17458;48.958;8.284;2023-07-28T09:54:41;2.60;;;1.73;;
30707;SDS011;17458;48.958;8.284;2023-07-28T09:57:29;8.25;;;1.60;;
30707;SDS011;17458;48.958;8.284;2023-07-28T10:00:17;2.10;;;1.55;;
30707;SDS011;17458;48.958;8.284;2023-07-28T10:03:02;3.83;;;1.83;;
30707;SDS011;17458;48.958;8.284;2023-07-28T10:05:47;1.70;;;1.60;;
30707;SDS011;17458;48.958;8.284;2023-07-28T10:08:31;1.95;;;1.17;;
30707;SDS011;17458;48.958;8.284;2023-07-28T10:11:16;5.38;;;1.63;;
30707;SDS011;17458;48.958;8.284;2023-07-28T10:14:01;2.15;;;1.52;;
30707;SDS011;17458;48.958;8.284;2023-07-28T10:16:45;2.05;;;1.38;;
30707;SDS011;17458;48.958;8.284;2023-07-28T10:19:29;7.25;;;1.60;;
30707;SDS011;17458;48.958;8.284;2023-07-28T10:22:18;3.58;;;1.30;;
30707;SDS011;17458;48.958;8.284;2023-07-28T10:25:02;5.70;;;1.88;;
30707;SDS011;17458;48.958;8.284;2023-07-28T10:27:47;9.35;;;1.50;;
30707;SDS011;17458;48.958;8.284;2023-07-28T10:30:34;3.05;;;1.50;;
30707;SDS011;17458;48.958;8.284;2023-07-28T10:33:35;1.73;;;1.55;;
30707;SDS011;17458;48.958;8.284;2023-07-28T10:44:48;4.85;;;1.63;;
30707;SDS011;17458;48.958;8.284;2023-07-28T10:47:33;2.33;;;1.83;;
30707;SDS011;17458;48.958;8.284;2023-07-28T10:50:17;1.20;;;1.10;;
30707;SDS011;17458;48.958;8.284;2023-07-28T10:53:03;3.83;;;0.98;;
30707;SDS011;17458;48.958;8.284;2023-07-28T10:55:46;1.15;;;0.93;;
30707;SDS011;17458;48.958;8.284;2023-07-28T10:58:31;1.58;;;1.42;;
30707;SDS011;17458;48.958;8.284;2023-07-28T11:01:15;2.03;;;1.42;;
30707;SDS011;17458;48.958;8.284;2023-07-28T11:04:13;1.58;;;1.10;;
30707;SDS011;17458;48.958;8.284;2023-07-28T11:07:01;1.83;;;1.48;;
30707;SDS011;17458;48.958;8.284;2023-07-28T11:09:45;5.43;;;0.90;;
30707;SDS011;17458;48.958;8.284;2023-07-28T11:12:29;2.30;;;1.63;;
30707;SDS011;17458;48.958;8.284;2023-07-28T11:15:14;8.30;;;2.90;;
30707;SDS011;17458;48.958;8.284;2023-07-28T11:17:59;10.25;;;4.80;;
30707;SDS011;17458;48.958;8.284;2023-07-28T11:20:43;9.23;;;4.30;;
30707;SDS011;17458;48.958;8.284;2023-07-28T11:23:28;6.88;;;2.40;;
30707;SDS011;17458;48.958;8.284;2023-07-28T11:26:12;3.92;;;2.13;;
30707;SDS011;17458;48.958;8.284;2023-07-28T11:28:57;3.60;;;2.35;;
30707;SDS011;17458;48.958;8.284;2023-07-28T11:31:43;2.95;;;1.85;;
30707;SDS011;17458;48.958;8.284;2023-07-28T11:34:27;3.03;;;1.52;;
30707;SDS011;17458;48.958;8.284;2023-07-28T11:37:11;3.67;;;2.10;;
30707;SDS011;17458;48.958;8.284;2023-07-28T11:39:56;5.28;;;2.03;;
30707;SDS011;17458;48.958;8.284;2023-07-28T11:42:49;2.78;;;1.50;;
30707;SDS011;17458;48.958;8.284;2023-07-28T11:45:35;2.42;;;1.42;;
30707;SDS011;17458;48.958;8.284;2023-07-28T11:48:19;1.88;;;1.60;;
30707;SDS011;17458;48.958;8.284;2023-07-28T11:51:03;3.30;;;1.33;;
30707;SDS011;17458;48.958;8.284;2023-07-28T11:53:47;2.92;;;1.63;;
30707;SDS011;17458;48.958;8.284;2023-07-28T11:56:30;1.77;;;1.67;;
30707;SDS011;17458;48.958;8.284;2023-07-28T11:59:15;4.30;;;2.00;;
30707;SDS011;17458;48.958;8.284;2023-07-28T12:02:01;2.95;;;2.25;;
30707;SDS011;17458;48.958;8.284;2023-07-28T12:04:48;1.92;;;1.50;;
30707;SDS011;17458;48.958;8.284;2023-07-28T12:07:34;1.65;;;1.40;;
30707;SDS011;17458;48.958;8.284;2023-07-28T12:10:19;2.38;;;1.83;;
30707;SDS011;17458;48.958;8.284;2023-07-28T12:13:04;4.20;;;2.20;;
30707;SDS011;17458;48.958;8.284;2023-07-28T12:15:49;4.03;;;2.63;;
30707;SDS011;17458;48.958;8.284;2023-07-28T12:18:33;3.85;;;2.33;;
30707;SDS011;17458;48.958;8.284;2023-07-28T12:21:17;3.35;;;2.30;;
30707;SDS011;17458;48.958;8.284;2023-07-28T12:24:01;4.85;;;2.00;;
30707;SDS011;17458;48.958;8.284;2023-07-28T12:26:45;3.65;;;2.05;;
30707;SDS011;17458;48.958;8.284;2023-07-28T12:29:34;4.90;;;2.63;;
30707;SDS011;17458;48.958;8.284;2023-07-28T12:32:18;6.03;;;2.50;;
30707;SDS011;17458;48.958;8.284;2023-07-28T12:35:02;5.75;;;2.40;;
30707;SDS011;17458;48.958;8.284;2023-07-28T12:37:47;3.50;;;2.08;;
30707;SDS011;17458;48.958;8.284;2023-07-28T12:40:32;2.58;;;2.03;;
30707;SDS011;17458;48.958;8.284;2023-07-28T12:43:17;4.47;;;2.17;;
30707;SDS011;17458;48.958;8.284;2023-07-28T12:46:01;3.58;;;2.00;;
30707;SDS011;17458;48.958;8.284;2023-07-28T12:48:45;6.13;;;1.83;;
30707;SDS011;17458;48.958;8.284;2023-07-28T12:51:29;4.65;;;2.45;;
30707;SDS011;17458;48.958;8.284;2023-07-28T12:54:13;6.60;;;2.33;;
30707;SDS011;17458;48.958;8.284;2023-07-28T12:56:57;3.38;;;2.53;;
30707;SDS011;17458;48.958;8.284;2023-07-28T12:59:41;3.28;;;2.53;;
30707;SDS011;17458;48.958;8.284;2023-07-28T13:02:25;2.88;;;1.90;;
30707;SDS011;17458;48.958;8.284;2023-07-28T13:05:10;4.03;;;2.15;;
30707;SDS011;17458;48.958;8.284;2023-07-28T13:07:54;6.28;;;3.58;;
30707;SDS011;17458;48.958;8.284;2023-07-28T13:10:38;4.43;;;2.40;;
30707;SDS011;17458;48.958;8.284;2023-07-28T13:13:22;2.92;;;2.45;;
30707;SDS011;17458;48.958;8.284;2023-07-28T13:16:06;5.30;;;2.20;;
30707;SDS011;17458;48.958;8.284;2023-07-28T13:18:50;3.92;;;2.28;;
30707;SDS011;17458;48.958;8.284;2023-07-28T13:21:34;3.72;;;2.97;;
30707;SDS011;17458;48.958;8.284;2023-07-28T13:24:18;6.25;;;2.28;;
30707;SDS011;17458;48.958;8.284;2023-07-28T13:27:02;4.35;;;2.40;;
30707;SDS011;17458;48.958;8.284;2023-07-28T13:29:47;5.93;;;2.63;;
30707;SDS011;17458;48.958;8.284;2023-07-28T13:32:31;4.28;;;2.35;;
30707;SDS011;17458;48.958;8.284;2023-07-28T13:35:15;3.58;;;1.50;;
30707;SDS011;17458;48.958;8.284;2023-07-28T13:37:59;1.38;;;1.27;;
30707;SDS011;17458;48.958;8.284;2023-07-28T13:40:43;7.07;;;1.48;;
30707;SDS011;17458;48.958;8.284;2023-07-28T13:43:27;1.95;;;1.42;;
30707;SDS011;17458;48.958;8.284;2023-07-28T13:46:11;5.35;;;1.40;;
30707;SDS011;17458;48.958;8.284;2023-07-28T13:48:55;2.40;;;1.05;;
30707;SDS011;17458;48.958;8.284;2023-07-28T13:51:39;4.30;;;1.70;;
30707;SDS011;17458;48.958;8.284;2023-07-28T13:54:23;2.75;;;1.70;;
30707;SDS011;17458;48.958;8.284;2023-07-28T13:57:07;3.47;;;1.63;;
30707;SDS011;17458;48.958;8.284;2023-07-28T13:59:51;2.20;;;1.42;;
30707;SDS011;17458;48.958;8.284;2023-07-28T14:02:36;1.95;;;1.40;;
30707;SDS011;17458;48.958;8.284;2023-07-28T14:05:20;3.22;;;1.42;;
30707;SDS011;17458;48.958;8.284;2023-07-28T14:08:06;1.48;;;1.23;;
30707;SDS011;17458;48.958;8.284;2023-07-28T14:10:51;2.80;;;1.85;;
30707;SDS011;17458;48.958;8.284;2023-07-28T14:13:36;3.30;;;1.80;;
30707;SDS011;17458;48.958;8.284;2023-07-28T14:16:20;6.38;;;2.00;;
30707;SDS011;17458;48.958;8.284;2023-07-28T14:19:04;2.80;;;1.90;;
30707;SDS011;17458;48.958;8.284;2023-07-28T14:21:48;1.55;;;1.23;;
30707;SDS011;17458;48.958;8.284;2023-07-28T14:24:32;1.60;;;1.40;;
30707;SDS011;17458;48.958;8.284;2023-07-28T14:27:16;3.67;;;1.95;;
30707;SDS011;17458;48.958;8.284;2023-07-28T14:30:00;2.67;;;1.65;;
30707;SDS011;17458;48.958;8.284;2023-07-28T14:32:44;1.67;;;1.20;;
30707;SDS011;17458;48.958;8.284;2023-07-28T14:35:28;1.58;;;1.25;;
30707;SDS011;17458;48.958;8.284;2023-07-28T14:38:12;5.45;;;1.23;;
30707;SDS011;17458;48.958;8.284;2023-07-28T14:40:57;8.90;;;1.52;;
30707;SDS011;17458;48.958;8.284;2023-07-28T14:43:41;2.13;;;1.10;;
30707;SDS011;17458;48.958;8.284;2023-07-28T14:46:26;1.85;;;1.00;;
30707;SDS011;17458;48.958;8.284;2023-07-28T14:49:10;2.03;;;1.30;;
30707;SDS011;17458;48.958;8.284;2023-07-28T14:51:54;1.40;;;1.13;;
30707;SDS011;17458;48.958;8.284;2023-07-28T14:54:38;1.83;;;0.93;;
30707;SDS011;17458;48.958;8.284;2023-07-28T14:57:23;1.27;;;0.93;;
30707;SDS011;17458;48.958;8.284;2023-07-28T15:00:07;1.67;;;0.98;;
30707;SDS011;17458;48.958;8.284;2023-07-28T15:02:53;0.80;;;0.77;;
30707;SDS011;17458;48.958;8.284;2023-07-28T15:05:37;8.07;;;1.60;;
30707;SDS011;17458;48.958;8.284;2023-07-28T15:08:21;2.53;;;2.03;;
30707;SDS011;17458;48.958;8.284;2023-07-28T15:11:05;2.60;;;1.50;;
30707;SDS011;17458;48.958;8.284;2023-07-28T15:13:48;2.28;;;1.65;;
30707;SDS011;17458;48.958;8.284;2023-07-28T15:16:32;1.63;;;1.52;;
30707;SDS011;17458;48.958;8.284;2023-07-28T15:19:16;10.07;;;2.92;;
30707;SDS011;17458;48.958;8.284;2023-07-28T15:22:00;4.72;;;2.15;;
30707;SDS011;17458;48.958;8.284;2023-07-28T15:24:44;3.05;;;1.63;;
30707;SDS011;17458;48.958;8.284;2023-07-28T15:27:28;3.10;;;1.70;;
30707;SDS011;17458;48.958;8.284;2023-07-28T15:30:12;4.75;;;2.13;;
30707;SDS011;17458;48.958;8.284;2023-07-28T15:32:56;4.05;;;2.05;;
30707;SDS011;17458;48.958;8.284;2023-07-28T15:35:40;4.85;;;1.45;;
30707;SDS011;17458;48.958;8.284;2023-07-28T15:38:25;8.48;;;1.95;;
30707;SDS011;17458;48.958;8.284;2023-07-28T15:41:09;3.83;;;1.70;;
30707;SDS011;17458;48.958;8.284;2023-07-28T15:43:53;16.90;;;2.22;;
30707;SDS011;17458;48.958;8.284;2023-07-28T15:46:37;6.38;;;2.90;;
30707;SDS011;17458;48.958;8.284;2023-07-28T15:49:20;7.22;;;1.92;;
30707;SDS011;17458;48.958;8.284;2023-07-28T15:52:04;11.98;;;1.92;;
30707;SDS011;17458;48.958;8.284;2023-07-28T15:54:49;1.88;;;1.50;;
30707;SDS011;17458;48.958;8.284;2023-07-28T15:57:33;12.20;;;2.08;;
30707;SDS011;17458;48.958;8.284;2023-07-28T16:00:17;1.90;;;1.50;;
30707;SDS011;17458;48.958;8.284;2023-07-28T16:03:01;2.90;;;1.80;;
30707;SDS011;17458;48.958;8.284;2023-07-28T16:05:56;2.25;;;1.58;;
30707;SDS011;17458;48.958;8.284;2023-07-28T16:08:41;2.83;;;1.83;;
30707;SDS011;17458;48.958;8.284;2023-07-28T16:11:25;2.50;;;1.58;;
30707;SDS011;17458;48.958;8.284;2023-07-28T16:14:09;4.85;;;2.03;;
30707;SDS011;17458;48.958;8.284;2023-07-28T16:16:53;4.00;;;2.53;;
30707;SDS011;17458;48.958;8.284;2023-07-28T16:19:38;2.60;;;1.67;;
30707;SDS011;17458;48.958;8.284;2023-07-28T16:22:23;5.20;;;1.92;;
30707;SDS011;17458;48.958;8.284;2023-07-28T16:25:07;6.60;;;2.30;;
30707;SDS011;17458;48.958;8.284;2023-07-28T16:27:52;9.32;;;2.00;;
30707;SDS011;17458;48.958;8.284;2023-07-28T16:30:36;2.83;;;1.80;;
30707;SDS011;17458;48.958;8.284;2023-07-28T16:33:20;7.63;;;1.60;;
30707;SDS011;17458;48.958;8.284;2023-07-28T16:36:04;3.97;;;1.90;;
30707;SDS011;17458;48.958;8.284;2023-07-28T16:38:48;3.70;;;2.00;;
30707;SDS011;17458;48.958;8.284;2023-07-28T16:41:32;4.18;;;2.03;;
30707;SDS011;17458;48.958;8.284;2023-07-28T16:44:17;2.78;;;2.20;;
30707;SDS011;17458;48.958;8.284;2023-07-28T16:47:01;6.60;;;1.58;;
30707;SDS011;17458;48.958;8.284;2023-07-28T16:49:45;4.18;;;2.67;;